sensor_id;sensor_type;location;lat;lon;timestamp;P1;durP1;ratioP1;P2;durP2;ratioP2
53646;SDS011;39550;52.230;5.194;2024-02-23T00:00:08;4.05;;;1.98;;
53646;SDS011;39550;52.230;5.194;2024-02-23T00:02:36;6.20;;;2.00;;
53646;SDS011;39550;52.230;5.194;2024-02-23T00:05:01;6.18;;;2.10;;
53646;SDS011;39550;52.230;5.194;2024-02-23T00:07:27;7.15;;;2.10;;
53646;SDS011;39550;52.230;5.194;2024-02-23T00:09:52;5.78;;;1.90;;
53646;SDS011;39550;52.230;5.194;2024-02-23T00:12:17;6.15;;;2.30;;
53646;SDS011;39550;52.230;5.194;2024-02-23T00:14:43;5.95;;;1.88;;
53646;SDS011;39550;52.230;5.194;2024-02-23T00:17:08;6.70;;;2.10;;
53646;SDS011;39550;52.230;5.194;2024-02-23T00:19:33;6.60;;;2.00;;
53646;SDS011;39550;52.230;5.194;2024-02-23T00:21:59;6.88;;;2.10;;
53646;SDS011;39550;52.230;5.194;2024-02-23T00:24:25;7.70;;;2.10;;
53646;SDS011;39550;52.230;5.194;2024-02-23T00:26:50;6.22;;;2.20;;
53646;SDS011;39550;52.230;5.194;2024-02-23T00:29:16;10.02;;;3.03;;
53646;SDS011;39550;52.230;5.194;2024-02-23T00:31:42;7.43;;;2.38;;
53646;SDS011;39550;52.230;5.194;2024-02-23T00:34:08;6.32;;;2.17;;
53646;SDS011;39550;52.230;5.194;2024-02-23T00:36:38;9.40;;;3.75;;
53646;SDS011;39550;52.230;5.194;2024-02-23T00:39:04;6.35;;;2.10;;
53646;SDS011;39550;52.230;5.194;2024-02-23T00:41:30;5.88;;;2.28;;
53646;SDS011;39550;52.230;5.194;2024-02-23T00:43:55;5.55;;;2.10;;
53646;SDS011;39550;52.230;5.194;2024-02-23T00:46:20;4.65;;;2.10;;
53646;SDS011;39550;52.230;5.194;2024-02-23T00:48:45;5.50;;;2.50;;
53646;SDS011;39550;52.230;5.194;2024-02-23T00:51:11;7.05;;;2.50;;
53646;SDS011;39550;52.230;5.194;2024-02-23T00:53:36;7.95;;;2.38;;
53646;SDS011;39550;52.230;5.194;2024-02-23T00:56:01;5.82;;;2.10;;
53646;SDS011;39550;52.230;5.194;2024-02-23T00:58:27;17.75;;;3.10;;
53646;SDS011;39550;52.230;5.194;2024-02-23T01:00:52;8.32;;;2.40;;
53646;SDS011;39550;52.230;5.194;2024-02-23T01:03:17;7.07;;;2.33;;
53646;SDS011;39550;52.230;5.194;2024-02-23T01:05:43;7.97;;;2.47;;
53646;SDS011;39550;52.230;5.194;2024-02-23T01:08:08;6.35;;;2.28;;
53646;SDS011;39550;52.230;5.194;2024-02-23T01:10:33;6.22;;;2.40;;
53646;SDS011;39550;52.230;5.194;2024-02-23T01:12:59;7.85;;;2.42;;
53646;SDS011;39550;52.230;5.194;2024-02-23T01:15:24;9.07;;;2.38;;
53646;SDS011;39550;52.230;5.194;2024-02-23T01:17:49;10.30;;;2.20;;
53646;SDS011;39550;52.230;5.194;2024-02-23T01:20:15;10.50;;;2.35;;
53646;SDS011;39550;52.230;5.194;2024-02-23T01:22:40;6.18;;;1.98;;
53646;SDS011;39550;52.230;5.194;2024-02-23T01:25:05;7.53;;;3.05;;
53646;SDS011;39550;52.230;5.194;2024-02-23T01:27:31;6.68;;;2.72;;
53646;SDS011;39550;52.230;5.194;2024-02-23T01:29:56;7.13;;;2.53;;
53646;SDS011;39550;52.230;5.194;2024-02-23T01:32:22;6.53;;;2.25;;
53646;SDS011;39550;52.230;5.194;2024-02-23T01:34:47;5.78;;;2.38;;
53646;SDS011;39550;52.230;5.194;2024-02-23T01:37:13;6.97;;;2.30;;
53646;SDS011;39550;52.230;5.194;2024-02-23T01:39:38;9.13;;;2.40;;
53646;SDS011;39550;52.230;5.194;2024-02-23T01:42:03;7.80;;;2.40;;
53646;SDS011;39550;52.230;5.194;2024-02-23T01:44:29;5.28;;;2.47;;
53646;SDS011;39550;52.230;5.194;2024-02-23T01:46:54;7.65;;;2.83;;
53646;SDS011;39550;52.230;5.194;2024-02-23T01:49:20;9.38;;;2.20;;
53646;SDS011;39550;52.230;5.194;2024-02-23T01:51:46;4.70;;;2.15;;
53646;SDS011;39550;52.230;5.194;2024-02-23T01:54:12;8.48;;;2.42;;
53646;SDS011;39550;52.230;5.194;2024-02-23T01:56:38;6.85;;;2.50;;
53646;SDS011;39550;52.230;5.194;2024-02-23T01:59:05;7.88;;;2.58;;
53646;SDS011;39550;52.230;5.194;2024-02-23T02:01:31;8.73;;;2.28;;
53646;SDS011;39550;52.230;5.194;2024-02-23T02:03:57;6.25;;;2.15;;
53646;SDS011;39550;52.230;5.194;2024-02-23T02:06:23;4.65;;;2.28;;
53646;SDS011;39550;52.230;5.194;2024-02-23T02:08:49;7.55;;;2.00;;
53646;SDS011;39550;52.230;5.194;2024-02-23T02:11:15;6.97;;;2.83;;
53646;SDS011;39550;52.230;5.194;2024-02-23T02:13:40;4.68;;;2.17;;
53646;SDS011;39550;52.230;5.194;2024-02-23T02:16:06;6.03;;;2.20;;
53646;SDS011;39550;52.230;5.194;2024-02-23T02:18:31;6.32;;;2.90;;
53646;SDS011;39550;52.230;5.194;2024-02-23T02:20:57;8.00;;;2.80;;
53646;SDS011;39550;52.230;5.194;2024-02-23T02:23:23;6.95;;;2.17;;
53646;SDS011;39550;52.230;5.194;2024-02-23T02:25:52;7.80;;;2.40;;
53646;SDS011;39550;52.230;5.194;2024-02-23T02:28:22;8.63;;;2.63;;
53646;SDS011;39550;52.230;5.194;2024-02-23T02:30:49;7.63;;;2.30;;
53646;SDS011;39550;52.230;5.194;2024-02-23T02:33:15;5.75;;;2.25;;
53646;SDS011;39550;52.230;5.194;2024-02-23T02:35:40;7.13;;;2.33;;
53646;SDS011;39550;52.230;5.194;2024-02-23T02:38:05;4.43;;;2.10;;
53646;SDS011;39550;52.230;5.194;2024-02-23T02:40:31;6.93;;;2.50;;
53646;SDS011;39550;52.230;5.194;2024-02-23T02:42:56;6.88;;;2.88;;
53646;SDS011;39550;52.230;5.194;2024-02-23T02:45:22;4.45;;;2.00;;
53646;SDS011;39550;52.230;5.194;2024-02-23T02:47:47;7.32;;;2.88;;
53646;SDS011;39550;52.230;5.194;2024-02-23T02:50:13;6.35;;;2.00;;
53646;SDS011;39550;52.230;5.194;2024-02-23T02:52:38;5.47;;;2.10;;
53646;SDS011;39550;52.230;5.194;2024-02-23T02:55:04;8.30;;;2.10;;
53646;SDS011;39550;52.230;5.194;2024-02-23T02:57:29;7.50;;;3.47;;
53646;SDS011;39550;52.230;5.194;2024-02-23T02:59:55;4.90;;;1.90;;
53646;SDS011;39550;52.230;5.194;2024-02-23T03:02:20;5.10;;;1.98;;
53646;SDS011;39550;52.230;5.194;2024-02-23T03:04:48;6.55;;;2.10;;
53646;SDS011;39550;52.230;5.194;2024-02-23T03:07:15;5.40;;;2.47;;
53646;SDS011;39550;52.230;5.194;2024-02-23T03:09:41;9.20;;;2.50;;
53646;SDS011;39550;52.230;5.194;2024-02-23T03:12:06;5.68;;;1.80;;
53646;SDS011;39550;52.230;5.194;2024-02-23T03:14:31;4.15;;;2.10;;
53646;SDS011;39550;52.230;5.194;2024-02-23T03:16:58;6.75;;;2.10;;
53646;SDS011;39550;52.230;5.194;2024-02-23T03:19:23;5.38;;;2.60;;
53646;SDS011;39550;52.230;5.194;2024-02-23T03:21:49;7.72;;;2.55;;
53646;SDS011;39550;52.230;5.194;2024-02-23T03:24:14;6.60;;;2.40;;
53646;SDS011;39550;52.230;5.194;2024-02-23T03:26:40;5.32;;;1.90;;
53646;SDS011;39550;52.230;5.194;2024-02-23T03:29:05;4.43;;;1.90;;
53646;SDS011;39550;52.230;5.194;2024-02-23T03:31:30;8.30;;;2.50;;
53646;SDS011;39550;52.230;5.194;2024-02-23T03:33:55;6.05;;;2.33;;
53646;SDS011;39550;52.230;5.194;2024-02-23T03:36:21;4.82;;;2.10;;
53646;SDS011;39550;52.230;5.194;2024-02-23T03:38:47;12.13;;;2.50;;
53646;SDS011;39550;52.230;5.194;2024-02-23T03:41:12;3.75;;;1.80;;
53646;SDS011;39550;52.230;5.194;2024-02-23T03:43:37;5.22;;;2.10;;
53646;SDS011;39550;52.230;5.194;2024-02-23T03:46:03;9.27;;;2.70;;
53646;SDS011;39550;52.230;5.194;2024-02-23T03:48:28;7.32;;;2.47;;
53646;SDS011;39550;52.230;5.194;2024-02-23T03:50:54;6.03;;;2.40;;
53646;SDS011;39550;52.230;5.194;2024-02-23T03:53:19;4.53;;;2.50;;
53646;SDS011;39550;52.230;5.194;2024-02-23T03:55:44;3.63;;;2.20;;
53646;SDS011;39550;52.230;5.194;2024-02-23T03:58:10;7.18;;;2.55;;
53646;SDS011;39550;52.230;5.194;2024-02-23T04:00:35;9.25;;;3.25;;
53646;SDS011;39550;52.230;5.194;2024-02-23T04:03:00;7.05;;;1.88;;
53646;SDS011;39550;52.230;5.194;2024-02-23T04:05:25;4.60;;;2.15;;
53646;SDS011;39550;52.230;5.194;2024-02-23T04:07:51;5.30;;;2.42;;
53646;SDS011;39550;52.230;5.194;2024-02-23T04:10:16;9.35;;;2.55;;
53646;SDS011;39550;52.230;5.194;2024-02-23T04:12:44;6.00;;;2.05;;
53646;SDS011;39550;52.230;5.194;2024-02-23T04:15:11;6.85;;;2.10;;
53646;SDS011;39550;52.230;5.194;2024-02-23T04:17:37;4.40;;;2.25;;
53646;SDS011;39550;52.230;5.194;2024-02-23T04:20:05;5.70;;;2.70;;
53646;SDS011;39550;52.230;5.194;2024-02-23T04:22:32;5.97;;;2.78;;
53646;SDS011;39550;52.230;5.194;2024-02-23T04:24:57;7.03;;;2.28;;
53646;SDS011;39550;52.230;5.194;2024-02-23T04:27:22;5.75;;;2.17;;
53646;SDS011;39550;52.230;5.194;2024-02-23T04:29:48;8.38;;;2.33;;
53646;SDS011;39550;52.230;5.194;2024-02-23T04:32:13;4.80;;;2.25;;
53646;SDS011;39550;52.230;5.194;2024-02-23T04:34:39;6.68;;;2.13;;
53646;SDS011;39550;52.230;5.194;2024-02-23T04:37:05;6.13;;;2.67;;
53646;SDS011;39550;52.230;5.194;2024-02-23T04:39:30;4.65;;;2.17;;
53646;SDS011;39550;52.230;5.194;2024-02-23T04:41:56;5.40;;;2.65;;
53646;SDS011;39550;52.230;5.194;2024-02-23T04:44:22;6.72;;;2.10;;
53646;SDS011;39550;52.230;5.194;2024-02-23T04:46:47;3.95;;;2.08;;
53646;SDS011;39550;52.230;5.194;2024-02-23T04:49:13;6.55;;;2.25;;
53646;SDS011;39550;52.230;5.194;2024-02-23T04:51:38;6.57;;;2.15;;
53646;SDS011;39550;52.230;5.194;2024-02-23T04:54:04;5.80;;;2.10;;
53646;SDS011;39550;52.230;5.194;2024-02-23T04:56:29;7.38;;;2.70;;
53646;SDS011;39550;52.230;5.194;2024-02-23T04:58:54;6.75;;;2.30;;
53646;SDS011;39550;52.230;5.194;2024-02-23T05:01:20;4.88;;;2.30;;
53646;SDS011;39550;52.230;5.194;2024-02-23T05:03:45;6.88;;;2.72;;
53646;SDS011;39550;52.230;5.194;2024-02-23T05:06:10;6.30;;;2.45;;
53646;SDS011;39550;52.230;5.194;2024-02-23T05:08:36;5.45;;;2.75;;
53646;SDS011;39550;52.230;5.194;2024-02-23T05:11:01;6.00;;;2.40;;
53646;SDS011;39550;52.230;5.194;2024-02-23T05:13:26;4.72;;;2.25;;
53646;SDS011;39550;52.230;5.194;2024-02-23T05:15:54;5.75;;;2.20;;
53646;SDS011;39550;52.230;5.194;2024-02-23T05:18:20;6.50;;;2.40;;
53646;SDS011;39550;52.230;5.194;2024-02-23T05:20:46;9.57;;;2.50;;
53646;SDS011;39550;52.230;5.194;2024-02-23T05:23:11;8.90;;;2.70;;
53646;SDS011;39550;52.230;5.194;2024-02-23T05:25:36;8.95;;;3.17;;
53646;SDS011;39550;52.230;5.194;2024-02-23T05:28:02;6.25;;;2.50;;
53646;SDS011;39550;52.230;5.194;2024-02-23T05:30:27;6.05;;;2.72;;
53646;SDS011;39550;52.230;5.194;2024-02-23T05:32:56;7.72;;;3.00;;
53646;SDS011;39550;52.230;5.194;2024-02-23T05:35:22;6.10;;;2.50;;
53646;SDS011;39550;52.230;5.194;2024-02-23T05:37:47;8.13;;;2.80;;
53646;SDS011;39550;52.230;5.194;2024-02-23T05:40:14;5.55;;;2.60;;
53646;SDS011;39550;52.230;5.194;2024-02-23T05:42:40;4.97;;;2.90;;
53646;SDS011;39550;52.230;5.194;2024-02-23T05:45:08;7.63;;;3.30;;
53646;SDS011;39550;52.230;5.194;2024-02-23T05:47:37;6.07;;;2.90;;
53646;SDS011;39550;52.230;5.194;2024-02-23T05:50:03;6.22;;;2.63;;
53646;SDS011;39550;52.230;5.194;2024-02-23T05:52:32;6.47;;;2.88;;
53646;SDS011;39550;52.230;5.194;2024-02-23T05:54:58;7.72;;;2.88;;
53646;SDS011;39550;52.230;5.194;2024-02-23T05:57:25;6.03;;;3.05;;
53646;SDS011;39550;52.230;5.194;2024-02-23T05:59:53;7.07;;;3.10;;
53646;SDS011;39550;52.230;5.194;2024-02-23T06:02:18;6.88;;;2.78;;
53646;SDS011;39550;52.230;5.194;2024-02-23T06:04:44;8.65;;;3.03;;
53646;SDS011;39550;52.230;5.194;2024-02-23T06:07:10;6.97;;;2.83;;
53646;SDS011;39550;52.230;5.194;2024-02-23T06:09:35;7.03;;;3.00;;
53646;SDS011;39550;52.230;5.194;2024-02-23T06:12:00;6.38;;;2.75;;
53646;SDS011;39550;52.230;5.194;2024-02-23T06:14:26;6.28;;;3.05;;
53646;SDS011;39550;52.230;5.194;2024-02-23T06:16:51;6.75;;;3.83;;
53646;SDS011;39550;52.230;5.194;2024-02-23T06:19:16;6.75;;;3.28;;
53646;SDS011;39550;52.230;5.194;2024-02-23T06:21:42;7.30;;;3.30;;
53646;SDS011;39550;52.230;5.194;2024-02-23T06:24:07;7.55;;;3.42;;
53646;SDS011;39550;52.230;5.194;2024-02-23T06:26:33;7.05;;;3.45;;
53646;SDS011;39550;52.230;5.194;2024-02-23T06:28:59;9.20;;;3.08;;
53646;SDS011;39550;52.230;5.194;2024-02-23T06:31:24;9.18;;;2.95;;
53646;SDS011;39550;52.230;5.194;2024-02-23T06:33:50;5.70;;;3.10;;
53646;SDS011;39550;52.230;5.194;2024-02-23T06:36:16;7.20;;;3.38;;
53646;SDS011;39550;52.230;5.194;2024-02-23T06:38:43;9.00;;;3.30;;
53646;SDS011;39550;52.230;5.194;2024-02-23T06:41:11;8.40;;;3.65;;
53646;SDS011;39550;52.230;5.194;2024-02-23T06:43:37;9.15;;;3.38;;
53646;SDS011;39550;52.230;5.194;2024-02-23T06:46:08;10.07;;;4.53;;
53646;SDS011;39550;52.230;5.194;2024-02-23T06:48:35;7.45;;;3.72;;
53646;SDS011;39550;52.230;5.194;2024-02-23T06:51:00;6.80;;;3.47;;
53646;SDS011;39550;52.230;5.194;2024-02-23T06:53:26;6.93;;;2.95;;
53646;SDS011;39550;52.230;5.194;2024-02-23T06:55:51;7.32;;;3.42;;
53646;SDS011;39550;52.230;5.194;2024-02-23T06:58:16;8.52;;;4.05;;
53646;SDS011;39550;52.230;5.194;2024-02-23T07:00:43;8.93;;;3.83;;
53646;SDS011;39550;52.230;5.194;2024-02-23T07:03:08;5.47;;;3.33;;
53646;SDS011;39550;52.230;5.194;2024-02-23T07:05:34;9.48;;;4.20;;
53646;SDS011;39550;52.230;5.194;2024-02-23T07:08:00;6.80;;;3.30;;
53646;SDS011;39550;52.230;5.194;2024-02-23T07:10:26;6.47;;;3.50;;
53646;SDS011;39550;52.230;5.194;2024-02-23T07:12:51;7.20;;;3.55;;
53646;SDS011;39550;52.230;5.194;2024-02-23T07:15:18;9.52;;;4.07;;
53646;SDS011;39550;52.230;5.194;2024-02-23T07:17:44;7.70;;;3.58;;
53646;SDS011;39550;52.230;5.194;2024-02-23T07:20:10;9.50;;;3.53;;
53646;SDS011;39550;52.230;5.194;2024-02-23T07:22:36;6.10;;;3.40;;
53646;SDS011;39550;52.230;5.194;2024-02-23T07:25:01;8.82;;;3.47;;
53646;SDS011;39550;52.230;5.194;2024-02-23T07:27:28;9.15;;;3.45;;
53646;SDS011;39550;52.230;5.194;2024-02-23T07:29:55;7.40;;;3.42;;
53646;SDS011;39550;52.230;5.194;2024-02-23T07:32:20;5.05;;;3.00;;
53646;SDS011;39550;52.230;5.194;2024-02-23T07:34:46;6.40;;;3.33;;
53646;SDS011;39550;52.230;5.194;2024-02-23T07:37:11;6.18;;;3.08;;
53646;SDS011;39550;52.230;5.194;2024-02-23T07:39:36;6.13;;;3.10;;
53646;SDS011;39550;52.230;5.194;2024-02-23T07:42:02;6.55;;;3.63;;
53646;SDS011;39550;52.230;5.194;2024-02-23T07:44:28;5.95;;;3.40;;
53646;SDS011;39550;52.230;5.194;2024-02-23T07:46:53;5.93;;;2.88;;
53646;SDS011;39550;52.230;5.194;2024-02-23T07:49:20;6.13;;;3.08;;
53646;SDS011;39550;52.230;5.194;2024-02-23T07:51:47;5.72;;;3.28;;
53646;SDS011;39550;52.230;5.194;2024-02-23T07:54:12;7.85;;;3.10;;
53646;SDS011;39550;52.230;5.194;2024-02-23T07:56:38;5.95;;;3.50;;
53646;SDS011;39550;52.230;5.194;2024-02-23T07:59:03;6.45;;;3.85;;
53646;SDS011;39550;52.230;5.194;2024-02-23T08:01:28;5.57;;;2.97;;
53646;SDS011;39550;52.230;5.194;2024-02-23T08:03:54;8.93;;;3.00;;
53646;SDS011;39550;52.230;5.194;2024-02-23T08:06:19;7.45;;;3.10;;
53646;SDS011;39550;52.230;5.194;2024-02-23T08:08:45;7.55;;;2.58;;
53646;SDS011;39550;52.230;5.194;2024-02-23T08:11:10;8.50;;;3.40;;
53646;SDS011;39550;52.230;5.194;2024-02-23T08:13:36;7.22;;;3.20;;
53646;SDS011;39550;52.230;5.194;2024-02-23T08:16:03;5.82;;;2.95;;
53646;SDS011;39550;52.230;5.194;2024-02-23T08:18:29;5.47;;;2.65;;
53646;SDS011;39550;52.230;5.194;2024-02-23T08:20:54;13.75;;;3.00;;
53646;SDS011;39550;52.230;5.194;2024-02-23T08:23:19;6.03;;;2.70;;
53646;SDS011;39550;52.230;5.194;2024-02-23T08:25:45;5.63;;;2.50;;
53646;SDS011;39550;52.230;5.194;2024-02-23T08:28:11;5.05;;;2.72;;
53646;SDS011;39550;52.230;5.194;2024-02-23T08:30:37;5.72;;;2.72;;
53646;SDS011;39550;52.230;5.194;2024-02-23T08:33:02;6.75;;;2.65;;
53646;SDS011;39550;52.230;5.194;2024-02-23T08:35:27;4.65;;;2.60;;
53646;SDS011;39550;52.230;5.194;2024-02-23T08:37:52;8.38;;;2.75;;
53646;SDS011;39550;52.230;5.194;2024-02-23T08:40:18;7.90;;;3.88;;
53646;SDS011;39550;52.230;5.194;2024-02-23T08:42:44;7.28;;;2.85;;
53646;SDS011;39550;52.230;5.194;2024-02-23T08:45:09;5.07;;;2.70;;
53646;SDS011;39550;52.230;5.194;2024-02-23T08:47:37;4.60;;;2.72;;
53646;SDS011;39550;52.230;5.194;2024-02-23T08:50:03;7.57;;;3.05;;
53646;SDS011;39550;52.230;5.194;2024-02-23T08:52:29;10.15;;;3.28;;
53646;SDS011;39550;52.230;5.194;2024-02-23T08:54:55;7.18;;;2.85;;
53646;SDS011;39550;52.230;5.194;2024-02-23T08:57:20;7.70;;;3.03;;
53646;SDS011;39550;52.230;5.194;2024-02-23T08:59:47;5.25;;;2.58;;
53646;SDS011;39550;52.230;5.194;2024-02-23T09:02:13;5.88;;;2.47;;
53646;SDS011;39550;52.230;5.194;2024-02-23T09:04:39;6.45;;;2.70;;
53646;SDS011;39550;52.230;5.194;2024-02-23T09:07:04;4.95;;;2.83;;
53646;SDS011;39550;52.230;5.194;2024-02-23T09:09:30;7.85;;;2.67;;
53646;SDS011;39550;52.230;5.194;2024-02-23T09:11:56;6.88;;;2.85;;
53646;SDS011;39550;52.230;5.194;2024-02-23T09:14:21;10.10;;;3.15;;
53646;SDS011;39550;52.230;5.194;2024-02-23T09:16:46;5.18;;;2.50;;
53646;SDS011;39550;52.230;5.194;2024-02-23T09:19:15;5.40;;;3.03;;
53646;SDS011;39550;52.230;5.194;2024-02-23T09:21:41;7.70;;;3.38;;
53646;SDS011;39550;52.230;5.194;2024-02-23T09:24:06;6.45;;;3.03;;
53646;SDS011;39550;52.230;5.194;2024-02-23T09:26:32;7.55;;;3.28;;
53646;SDS011;39550;52.230;5.194;2024-02-23T09:28:57;8.15;;;4.03;;
53646;SDS011;39550;52.230;5.194;2024-02-23T09:31:22;6.25;;;3.22;;
53646;SDS011;39550;52.230;5.194;2024-02-23T09:33:47;6.18;;;2.72;;
53646;SDS011;39550;52.230;5.194;2024-02-23T09:36:15;7.20;;;2.70;;
53646;SDS011;39550;52.230;5.194;2024-02-23T09:38:41;5.50;;;2.55;;
53646;SDS011;39550;52.230;5.194;2024-02-23T09:41:07;8.63;;;3.20;;
53646;SDS011;39550;52.230;5.194;2024-02-23T09:43:41;6.97;;;2.80;;
53646;SDS011;39550;52.230;5.194;2024-02-23T09:46:09;5.57;;;2.95;;
53646;SDS011;39550;52.230;5.194;2024-02-23T09:48:35;5.60;;;2.70;;
53646;SDS011;39550;52.230;5.194;2024-02-23T09:51:01;5.97;;;3.20;;
53646;SDS011;39550;52.230;5.194;2024-02-23T09:53:29;6.53;;;3.17;;
53646;SDS011;39550;52.230;5.194;2024-02-23T09:55:55;6.30;;;2.58;;
53646;SDS011;39550;52.230;5.194;2024-02-23T09:58:24;8.80;;;2.78;;
53646;SDS011;39550;52.230;5.194;2024-02-23T10:00:51;5.35;;;2.78;;
53646;SDS011;39550;52.230;5.194;2024-02-23T10:03:17;6.15;;;2.72;;
53646;SDS011;39550;52.230;5.194;2024-02-23T10:05:42;5.47;;;2.88;;
53646;SDS011;39550;52.230;5.194;2024-02-23T10:08:09;4.40;;;2.40;;
53646;SDS011;39550;52.230;5.194;2024-02-23T10:10:34;9.90;;;3.92;;
53646;SDS011;39550;52.230;5.194;2024-02-23T10:13:00;8.55;;;2.88;;
53646;SDS011;39550;52.230;5.194;2024-02-23T10:15:28;6.75;;;2.55;;
53646;SDS011;39550;52.230;5.194;2024-02-23T10:17:54;5.55;;;2.72;;
53646;SDS011;39550;52.230;5.194;2024-02-23T10:20:20;7.35;;;2.58;;
53646;SDS011;39550;52.230;5.194;2024-02-23T10:22:45;6.65;;;2.97;;
53646;SDS011;39550;52.230;5.194;2024-02-23T10:25:11;5.18;;;2.90;;
53646;SDS011;39550;52.230;5.194;2024-02-23T10:27:37;6.90;;;3.28;;
53646;SDS011;39550;52.230;5.194;2024-02-23T10:30:02;5.93;;;3.40;;
53646;SDS011;39550;52.230;5.194;2024-02-23T10:32:28;7.25;;;2.90;;
53646;SDS011;39550;52.230;5.194;2024-02-23T10:34:55;4.85;;;2.92;;
53646;SDS011;39550;52.230;5.194;2024-02-23T10:37:26;6.60;;;3.10;;
53646;SDS011;39550;52.230;5.194;2024-02-23T10:39:53;9.32;;;2.92;;
53646;SDS011;39550;52.230;5.194;2024-02-23T10:42:23;6.60;;;2.80;;
53646;SDS011;39550;52.230;5.194;2024-02-23T10:44:50;6.97;;;3.05;;
53646;SDS011;39550;52.230;5.194;2024-02-23T10:47:17;6.57;;;2.60;;
53646;SDS011;39550;52.230;5.194;2024-02-23T10:49:45;5.45;;;2.88;;
53646;SDS011;39550;52.230;5.194;2024-02-23T10:52:11;7.00;;;2.75;;
53646;SDS011;39550;52.230;5.194;2024-02-23T10:54:38;5.28;;;2.88;;
53646;SDS011;39550;52.230;5.194;2024-02-23T10:57:04;6.93;;;2.95;;
53646;SDS011;39550;52.230;5.194;2024-02-23T10:59:31;9.07;;;3.20;;
53646;SDS011;39550;52.230;5.194;2024-02-23T11:01:56;6.25;;;2.88;;
53646;SDS011;39550;52.230;5.194;2024-02-23T11:04:24;4.95;;;3.00;;
53646;SDS011;39550;52.230;5.194;2024-02-23T11:06:52;7.63;;;3.88;;
53646;SDS011;39550;52.230;5.194;2024-02-23T11:09:22;6.32;;;3.17;;
53646;SDS011;39550;52.230;5.194;2024-02-23T11:11:52;8.60;;;3.20;;
53646;SDS011;39550;52.230;5.194;2024-02-23T11:14:30;5.43;;;3.00;;
53646;SDS011;39550;52.230;5.194;2024-02-23T11:17:00;7.03;;;3.50;;
53646;SDS011;39550;52.230;5.194;2024-02-23T11:19:32;6.60;;;3.47;;
53646;SDS011;39550;52.230;5.194;2024-02-23T11:21:59;5.15;;;2.90;;
53646;SDS011;39550;52.230;5.194;2024-02-23T11:24:25;6.13;;;3.00;;
53646;SDS011;39550;52.230;5.194;2024-02-23T11:27:00;6.03;;;3.10;;
53646;SDS011;39550;52.230;5.194;2024-02-23T11:29:33;4.60;;;2.63;;
53646;SDS011;39550;52.230;5.194;2024-02-23T11:31:59;7.32;;;3.40;;
53646;SDS011;39550;52.230;5.194;2024-02-23T11:34:26;7.00;;;3.17;;
53646;SDS011;39550;52.230;5.194;2024-02-23T11:36:52;5.15;;;3.20;;
53646;SDS011;39550;52.230;5.194;2024-02-23T11:39:22;4.85;;;2.88;;
53646;SDS011;39550;52.230;5.194;2024-02-23T11:41:50;5.55;;;3.17;;
53646;SDS011;39550;52.230;5.194;2024-02-23T11:44:16;5.13;;;2.80;;
53646;SDS011;39550;52.230;5.194;2024-02-23T11:46:45;4.85;;;3.00;;
53646;SDS011;39550;52.230;5.194;2024-02-23T11:49:11;6.45;;;3.20;;
53646;SDS011;39550;52.230;5.194;2024-02-23T11:51:37;5.05;;;2.90;;
53646;SDS011;39550;52.230;5.194;2024-02-23T11:54:02;6.63;;;3.25;;
53646;SDS011;39550;52.230;5.194;2024-02-23T11:56:28;6.03;;;3.40;;
53646;SDS011;39550;52.230;5.194;2024-02-23T11:58:56;6.25;;;3.05;;
53646;SDS011;39550;52.230;5.194;2024-02-23T12:01:22;6.63;;;3.25;;
53646;SDS011;39550;52.230;5.194;2024-02-23T12:03:47;4.90;;;3.08;;
53646;SDS011;39550;52.230;5.194;2024-02-23T12:06:14;7.40;;;3.10;;
53646;SDS011;39550;52.230;5.194;2024-02-23T12:08:40;7.50;;;3.38;;
53646;SDS011;39550;52.230;5.194;2024-02-23T12:11:07;5.78;;;3.20;;
53646;SDS011;39550;52.230;5.194;2024-02-23T12:13:33;7.35;;;3.45;;
53646;SDS011;39550;52.230;5.194;2024-02-23T12:15:59;5.43;;;3.17;;
53646;SDS011;39550;52.230;5.194;2024-02-23T12:18:26;6.65;;;3.53;;
53646;SDS011;39550;52.230;5.194;2024-02-23T12:20:51;9.93;;;3.60;;
53646;SDS011;39550;52.230;5.194;2024-02-23T12:23:23;5.32;;;2.92;;
53646;SDS011;39550;52.230;5.194;2024-02-23T12:25:53;7.45;;;3.13;;
53646;SDS011;39550;52.230;5.194;2024-02-23T12:28:38;4.97;;;2.92;;
53646;SDS011;39550;52.230;5.194;2024-02-23T12:31:05;6.55;;;3.53;;
53646;SDS011;39550;52.230;5.194;2024-02-23T12:33:31;5.53;;;3.35;;
53646;SDS011;39550;52.230;5.194;2024-02-23T12:36:01;6.03;;;3.20;;
53646;SDS011;39550;52.230;5.194;2024-02-23T12:38:27;5.93;;;3.00;;
53646;SDS011;39550;52.230;5.194;2024-02-23T12:40:53;5.50;;;3.38;;
53646;SDS011;39550;52.230;5.194;2024-02-23T12:43:18;9.90;;;3.28;;
53646;SDS011;39550;52.230;5.194;2024-02-23T12:45:46;5.30;;;3.10;;
53646;SDS011;39550;52.230;5.194;2024-02-23T12:48:21;5.63;;;3.22;;
53646;SDS011;39550;52.230;5.194;2024-02-23T12:50:47;5.57;;;3.63;;
53646;SDS011;39550;52.230;5.194;2024-02-23T12:53:30;6.80;;;3.20;;
53646;SDS011;39550;52.230;5.194;2024-02-23T12:56:09;5.67;;;3.00;;
53646;SDS011;39550;52.230;5.194;2024-02-23T12:58:41;6.47;;;3.10;;
53646;SDS011;39550;52.230;5.194;2024-02-23T13:01:08;4.82;;;3.05;;
53646;SDS011;39550;52.230;5.194;2024-02-23T13:03:34;5.65;;;3.05;;
53646;SDS011;39550;52.230;5.194;2024-02-23T13:06:01;6.80;;;3.17;;
53646;SDS011;39550;52.230;5.194;2024-02-23T13:08:27;6.80;;;3.00;;
53646;SDS011;39550;52.230;5.194;2024-02-23T13:10:53;5.82;;;2.92;;
53646;SDS011;39550;52.230;5.194;2024-02-23T13:13:19;9.95;;;3.28;;
53646;SDS011;39550;52.230;5.194;2024-02-23T13:15:46;6.60;;;3.10;;
53646;SDS011;39550;52.230;5.194;2024-02-23T13:18:12;4.82;;;3.17;;
53646;SDS011;39550;52.230;5.194;2024-02-23T13:20:38;5.88;;;3.20;;
53646;SDS011;39550;52.230;5.194;2024-02-23T13:23:04;10.75;;;2.95;;
53646;SDS011;39550;52.230;5.194;2024-02-23T13:25:31;5.82;;;2.97;;
53646;SDS011;39550;52.230;5.194;2024-02-23T13:27:57;6.28;;;3.20;;
53646;SDS011;39550;52.230;5.194;2024-02-23T13:30:22;8.75;;;4.18;;
53646;SDS011;39550;52.230;5.194;2024-02-23T13:32:48;11.65;;;2.95;;
53646;SDS011;39550;52.230;5.194;2024-02-23T13:35:13;5.15;;;2.97;;
53646;SDS011;39550;52.230;5.194;2024-02-23T13:37:39;8.70;;;3.17;;
53646;SDS011;39550;52.230;5.194;2024-02-23T13:40:05;6.28;;;2.97;;
53646;SDS011;39550;52.230;5.194;2024-02-23T13:42:33;5.68;;;2.50;;
53646;SDS011;39550;52.230;5.194;2024-02-23T13:44:59;5.20;;;2.70;;
53646;SDS011;39550;52.230;5.194;2024-02-23T13:47:24;5.75;;;3.03;;
53646;SDS011;39550;52.230;5.194;2024-02-23T13:49:50;5.63;;;2.60;;
53646;SDS011;39550;52.230;5.194;2024-02-23T13:52:15;5.07;;;2.67;;
53646;SDS011;39550;52.230;5.194;2024-02-23T13:54:40;7.07;;;4.00;;
53646;SDS011;39550;52.230;5.194;2024-02-23T13:57:06;6.68;;;2.97;;
53646;SDS011;39550;52.230;5.194;2024-02-23T13:59:31;7.47;;;3.00;;
53646;SDS011;39550;52.230;5.194;2024-02-23T14:01:59;4.90;;;2.83;;
53646;SDS011;39550;52.230;5.194;2024-02-23T14:04:24;3.92;;;2.50;;
53646;SDS011;39550;52.230;5.194;2024-02-23T14:06:49;5.60;;;2.70;;
53646;SDS011;39550;52.230;5.194;2024-02-23T14:09:14;5.28;;;2.55;;
53646;SDS011;39550;52.230;5.194;2024-02-23T14:11:40;5.57;;;2.60;;
53646;SDS011;39550;52.230;5.194;2024-02-23T14:14:05;5.30;;;2.92;;
53646;SDS011;39550;52.230;5.194;2024-02-23T14:16:32;4.80;;;2.40;;
53646;SDS011;39550;52.230;5.194;2024-02-23T14:18:57;6.75;;;2.70;;
53646;SDS011;39550;52.230;5.194;2024-02-23T14:21:22;8.23;;;3.13;;
53646;SDS011;39550;52.230;5.194;2024-02-23T14:23:50;5.43;;;2.72;;
53646;SDS011;39550;52.230;5.194;2024-02-23T14:26:15;5.40;;;2.70;;
53646;SDS011;39550;52.230;5.194;2024-02-23T14:28:40;5.88;;;2.58;;
53646;SDS011;39550;52.230;5.194;2024-02-23T14:31:06;6.18;;;2.88;;
53646;SDS011;39550;52.230;5.194;2024-02-23T14:33:31;4.63;;;2.55;;
53646;SDS011;39550;52.230;5.194;2024-02-23T14:35:57;6.68;;;2.50;;
53646;SDS011;39550;52.230;5.194;2024-02-23T14:38:22;6.40;;;3.67;;
53646;SDS011;39550;52.230;5.194;2024-02-23T14:40:47;4.55;;;2.53;;